Airfield :
LOGIN :

Register | Disclaimer

   EN    FR    IT 

 










Legend :    VFR   Marginal VFR   IFR   Intensive IFR   Very Intensive IFR
Visi :
Ceiling :
>= 8 km
>= 3000ft
5 to 8 km
1000 to 3000 ft
1500m to 5 km
500 to 1000 ft
800 to 1500m
200 to 500 ft
< 800m
< 200 ft
Symbols :   Thunderstorms  Fog  Heavy snow  Heavy precipitations  Wind > 20 kt
SIGMETs :     Misc.  Thunderstorms  Icing  Turbulence  Mountain Waves  Volcanic Ashes






- Airport Elevation : 359 ft
- IATA code : BVA


LFOB - Beauvais

CURRENT METAR :
  • 111200Z AUTO VRB03KT CAVOK 35/15 Q1014 TEMPO VRB20G35KT 2000 TSRAGS BKN070CB

EXPIRED METARs :
  • 111130Z AUTO 13004KT 070V200 CAVOK 34/16 Q1014 TEMPO VRB20G35KT 2000 TSRAGS BKN070CB
  • 111100Z AUTO VRB03KT CAVOK 34/16 Q1014 TEMPO SCT070CB
  • 111030Z AUTO VRB02KT CAVOK 33/16 Q1014 TEMPO SCT070CB
  • 111000Z AUTO 32003KT 240V030 CAVOK 31/17 Q1014 TEMPO SCT070CB
  • 110930Z AUTO 23005KT 180V270 CAVOK 30/18 Q1015 TEMPO SCT070CB

TAF TAF LFOB
Valid from the 11 at 12:00 until the 12 at 12:00 UTC


111100Z 1112/1212 VRB02KT CAVOK
TEMPO 1112/1212 SCT070CB
PROB40
TEMPO 1113/1120 VRB20G35KT 2000 TSRAGS BKN070CB
PROB30
TEMPO 1114/1117 VRB30G55KT 1000 TSGR
ATIS : +33 3 44 11 49 28



MET'MAP, your aeronautical weather chart ! - Copyright ORBIFLY December 2007 - Disclaimer

ORBIFLY MET'MAP TEAM :

Programming & Development : Alexandra Zaïnal
Concept & original design : Baudouin d'Aumeries
Assistance for programming : Marc-Olivier Méhu
Technical & hardware support : Manuel Goepfert

Contact : metmap@orbifly.com




SOURCES & CREDITS :

   NOAA